Alfonso Bonilla Aragon International Airport
SKCL : now visible

Airfield :











YOU CAN JOIN US ON...

 
LOGIN :

Register | Disclaimer

   EN    FR    IT 

 









Legend :    VFR   Marginal VFR   IFR   Intensive IFR   Very Intensive IFR
Visi :
Ceiling :
>= 8 km
>= 3000ft
5 to 8 km
1000 to 3000 ft
1500m to 5 km
500 to 1000 ft
800 to 1500m
200 to 500 ft
< 800m
< 200 ft
Symbols :   Thunderstorms  Fog  Heavy snow  Heavy precipitations  Wind > 20 kt







- Airport Elevation : 3162 ft
- IATA code : CLO


SKCL - Alfonso Bonilla Aragon International

CURRENT METAR :
  • 220900Z 29005KT 9999 FEW030 SCT070 BKN200 20/19 A3004 NOSIG

EXPIRED METARs :
  • 220800Z 03003KT 9999 SCT030 BKN120 19/18 A3004 NOSIG
  • 220700Z 06004KT 9999 SCT030 BKN060 19/18 A3003 NOSIG

TAF TAF SKCL
Valid from the 22 at 06:00 until the 23 at 06:00 UTC


220430Z 2206/2306 03004KT 9999 SCT030 SCT100
TEMPO 2208/2213 3000 BR SCT008
BECMG 2218/2219 33012KT
TEMPO 2300/2302 DZRA SCT017 TX29/2219Z TN18/2211Z
No reported NOTAMs for that airfield.



MET'MAP, your aeronautical weather chart ! - Copyright ORBIFLY December 2007 - Disclaimer

ORBIFLY MET'MAP TEAM :

Programming & Development : Alexandra Zaïnal
Concept & Development : Baudouin d'Aumeries
Co-Development & Prog : Marc-Olivier Méhu
Technical & hardware support : Manuel Goepfert

Contact : metmap@orbifly.com




SOURCES & CREDITS :

   NOAA       Earth
Advisory